sensor_id;sensor_type;location;lat;lon;timestamp;temperature;humidity
23550;DHT22;11953;49.010;8.608;2022-08-19T00:01:16;23.10;99.90
23550;DHT22;11953;49.010;8.608;2022-08-19T00:04:16;23.10;99.90
23550;DHT22;11953;49.010;8.608;2022-08-19T00:07:05;23.10;99.90
23550;DHT22;11953;49.010;8.608;2022-08-19T00:09:52;23.00;99.90
23550;DHT22;11953;49.010;8.608;2022-08-19T00:12:41;23.00;99.90
23550;DHT22;11953;49.010;8.608;2022-08-19T00:15:32;23.00;99.90
23550;DHT22;11953;49.010;8.608;2022-08-19T00:18:18;23.00;99.90
23550;DHT22;11953;49.010;8.608;2022-08-19T00:21:05;23.00;99.90
23550;DHT22;11953;49.010;8.608;2022-08-19T00:23:55;22.90;99.90
23550;DHT22;11953;49.010;8.608;2022-08-19T00:26:44;22.90;99.90
23550;DHT22;11953;49.010;8.608;2022-08-19T00:29:31;22.90;99.90
23550;DHT22;11953;49.010;8.608;2022-08-19T00:32:17;22.90;99.90
23550;DHT22;11953;49.010;8.608;2022-08-19T00:35:06;23.00;99.90
23550;DHT22;11953;49.010;8.608;2022-08-19T00:37:53;22.90;99.90
23550;DHT22;11953;49.010;8.608;2022-08-19T00:40:43;22.80;99.90
23550;DHT22;11953;49.010;8.608;2022-08-19T00:43:31;22.90;99.90
23550;DHT22;11953;49.010;8.608;2022-08-19T00:46:18;22.90;99.90
23550;DHT22;11953;49.010;8.608;2022-08-19T00:49:09;22.90;99.90
23550;DHT22;11953;49.010;8.608;2022-08-19T00:52:00;22.80;99.90
23550;DHT22;11953;49.010;8.608;2022-08-19T00:54:48;22.80;99.90
23550;DHT22;11953;49.010;8.608;2022-08-19T00:57:40;22.80;99.90
23550;DHT22;11953;49.010;8.608;2022-08-19T01:00:30;22.80;99.90
23550;DHT22;11953;49.010;8.608;2022-08-19T01:03:20;22.70;99.90
23550;DHT22;11953;49.010;8.608;2022-08-19T01:06:07;22.70;99.90
23550;DHT22;11953;49.010;8.608;2022-08-19T01:08:54;22.70;99.90
23550;DHT22;11953;49.010;8.608;2022-08-19T01:11:43;22.70;99.90
23550;DHT22;11953;49.010;8.608;2022-08-19T01:14:33;22.70;99.90
23550;DHT22;11953;49.010;8.608;2022-08-19T01:17:20;22.70;99.90
23550;DHT22;11953;49.010;8.608;2022-08-19T01:20:10;22.70;99.90
23550;DHT22;11953;49.010;8.608;2022-08-19T01:22:58;22.70;99.90
23550;DHT22;11953;49.010;8.608;2022-08-19T01:25:48;22.70;99.90
23550;DHT22;11953;49.010;8.608;2022-08-19T01:28:37;22.70;99.90
23550;DHT22;11953;49.010;8.608;2022-08-19T01:31:28;22.70;99.90
23550;DHT22;11953;49.010;8.608;2022-08-19T01:34:17;22.60;99.90
23550;DHT22;11953;49.010;8.608;2022-08-19T01:37:07;22.60;99.90
23550;DHT22;11953;49.010;8.608;2022-08-19T01:39:57;22.50;99.90
23550;DHT22;11953;49.010;8.608;2022-08-19T01:42:44;22.60;99.90
23550;DHT22;11953;49.010;8.608;2022-08-19T01:45:33;22.60;99.90
23550;DHT22;11953;49.010;8.608;2022-08-19T01:48:20;22.60;99.90
23550;DHT22;11953;49.010;8.608;2022-08-19T01:51:09;22.50;99.90
23550;DHT22;11953;49.010;8.608;2022-08-19T01:53:55;22.50;99.90
23550;DHT22;11953;49.010;8.608;2022-08-19T01:56:43;22.50;99.90
23550;DHT22;11953;49.010;8.608;2022-08-19T01:59:31;22.50;99.90
23550;DHT22;11953;49.010;8.608;2022-08-19T02:02:18;22.50;99.90
23550;DHT22;11953;49.010;8.608;2022-08-19T02:05:07;22.50;99.90
23550;DHT22;11953;49.010;8.608;2022-08-19T02:07:55;22.50;99.90
23550;DHT22;11953;49.010;8.608;2022-08-19T02:10:43;22.50;99.90
23550;DHT22;11953;49.010;8.608;2022-08-19T02:13:33;22.50;99.90
23550;DHT22;11953;49.010;8.608;2022-08-19T02:16:21;22.40;99.90
23550;DHT22;11953;49.010;8.608;2022-08-19T02:19:08;22.40;99.90
23550;DHT22;11953;49.010;8.608;2022-08-19T02:21:55;22.40;99.90
23550;DHT22;11953;49.010;8.608;2022-08-19T02:24:42;22.50;99.90
23550;DHT22;11953;49.010;8.608;2022-08-19T02:27:28;22.50;99.90
23550;DHT22;11953;49.010;8.608;2022-08-19T02:30:18;22.50;99.90
23550;DHT22;11953;49.010;8.608;2022-08-19T02:33:05;22.50;99.90
23550;DHT22;11953;49.010;8.608;2022-08-19T02:35:51;22.60;99.90
23550;DHT22;11953;49.010;8.608;2022-08-19T02:38:39;22.50;99.90
23550;DHT22;11953;49.010;8.608;2022-08-19T02:41:29;22.50;99.90
23550;DHT22;11953;49.010;8.608;2022-08-19T02:44:16;22.50;99.90
23550;DHT22;11953;49.010;8.608;2022-08-19T02:47:17;22.50;99.90
23550;DHT22;11953;49.010;8.608;2022-08-19T02:50:05;22.40;99.90
23550;DHT22;11953;49.010;8.608;2022-08-19T02:52:51;22.40;99.90
23550;DHT22;11953;49.010;8.608;2022-08-19T02:55:44;22.30;99.90
23550;DHT22;11953;49.010;8.608;2022-08-19T02:58:32;22.30;99.90
23550;DHT22;11953;49.010;8.608;2022-08-19T03:01:26;22.30;99.90
23550;DHT22;11953;49.010;8.608;2022-08-19T03:04:15;22.30;99.90
23550;DHT22;11953;49.010;8.608;2022-08-19T03:07:02;22.40;99.90
23550;DHT22;11953;49.010;8.608;2022-08-19T03:09:55;22.30;99.90
23550;DHT22;11953;49.010;8.608;2022-08-19T03:12:41;22.30;99.90
23550;DHT22;11953;49.010;8.608;2022-08-19T03:15:28;22.30;99.90
23550;DHT22;11953;49.010;8.608;2022-08-19T03:18:16;22.30;99.90
23550;DHT22;11953;49.010;8.608;2022-08-19T03:21:05;22.20;99.90
23550;DHT22;11953;49.010;8.608;2022-08-19T03:23:59;22.10;99.90
23550;DHT22;11953;49.010;8.608;2022-08-19T03:26:47;22.10;99.90
23550;DHT22;11953;49.010;8.608;2022-08-19T03:29:37;22.10;99.90
23550;DHT22;11953;49.010;8.608;2022-08-19T03:32:28;22.10;99.90
23550;DHT22;11953;49.010;8.608;2022-08-19T03:35:17;22.10;99.90
23550;DHT22;11953;49.010;8.608;2022-08-19T03:38:06;22.00;99.90
23550;DHT22;11953;49.010;8.608;2022-08-19T03:40:53;22.00;99.90
23550;DHT22;11953;49.010;8.608;2022-08-19T03:43:41;22.00;99.90
23550;DHT22;11953;49.010;8.608;2022-08-19T03:46:29;22.00;99.90
23550;DHT22;11953;49.010;8.608;2022-08-19T03:49:17;22.10;99.90
23550;DHT22;11953;49.010;8.608;2022-08-19T03:52:05;22.00;99.90
23550;DHT22;11953;49.010;8.608;2022-08-19T03:54:54;22.10;99.90
23550;DHT22;11953;49.010;8.608;2022-08-19T03:57:41;22.10;99.90
23550;DHT22;11953;49.010;8.608;2022-08-19T04:00:27;22.10;99.90
23550;DHT22;11953;49.010;8.608;2022-08-19T04:03:14;22.00;99.90
23550;DHT22;11953;49.010;8.608;2022-08-19T04:06:09;22.00;99.90
23550;DHT22;11953;49.010;8.608;2022-08-19T04:08:58;22.10;99.90
23550;DHT22;11953;49.010;8.608;2022-08-19T04:11:49;22.10;99.90
23550;DHT22;11953;49.010;8.608;2022-08-19T04:14:39;22.00;99.90
23550;DHT22;11953;49.010;8.608;2022-08-19T04:17:25;22.10;99.90
23550;DHT22;11953;49.010;8.608;2022-08-19T04:20:12;22.00;99.90
23550;DHT22;11953;49.010;8.608;2022-08-19T04:22:59;21.90;99.90
23550;DHT22;11953;49.010;8.608;2022-08-19T04:25:46;21.90;99.90
23550;DHT22;11953;49.010;8.608;2022-08-19T04:28:34;22.00;99.90
23550;DHT22;11953;49.010;8.608;2022-08-19T04:31:23;22.00;99.90
23550;DHT22;11953;49.010;8.608;2022-08-19T04:34:14;21.90;99.90
23550;DHT22;11953;49.010;8.608;2022-08-19T04:37:05;21.90;99.90
23550;DHT22;11953;49.010;8.608;2022-08-19T04:39:57;22.00;99.90
23550;DHT22;11953;49.010;8.608;2022-08-19T04:42:58;21.90;99.90
23550;DHT22;11953;49.010;8.608;2022-08-19T04:45:45;21.90;99.90
23550;DHT22;11953;49.010;8.608;2022-08-19T04:48:32;22.00;99.90
23550;DHT22;11953;49.010;8.608;2022-08-19T04:51:19;22.00;99.90
23550;DHT22;11953;49.010;8.608;2022-08-19T04:54:06;22.10;99.90
23550;DHT22;11953;49.010;8.608;2022-08-19T04:56:53;22.00;99.90
23550;DHT22;11953;49.010;8.608;2022-08-19T04:59:39;22.10;99.90
23550;DHT22;11953;49.010;8.608;2022-08-19T05:02:27;22.10;99.90
23550;DHT22;11953;49.010;8.608;2022-08-19T05:05:14;22.20;99.90
23550;DHT22;11953;49.010;8.608;2022-08-19T05:08:01;22.20;99.90
23550;DHT22;11953;49.010;8.608;2022-08-19T05:10:50;22.20;99.90
23550;DHT22;11953;49.010;8.608;2022-08-19T05:13:37;22.20;99.90
23550;DHT22;11953;49.010;8.608;2022-08-19T05:16:27;22.20;99.90
23550;DHT22;11953;49.010;8.608;2022-08-19T05:19:15;22.20;99.90
23550;DHT22;11953;49.010;8.608;2022-08-19T05:22:25;22.20;99.90
23550;DHT22;11953;49.010;8.608;2022-08-19T05:25:23;22.20;99.90
23550;DHT22;11953;49.010;8.608;2022-08-19T05:28:10;22.20;99.90
23550;DHT22;11953;49.010;8.608;2022-08-19T05:30:57;22.30;99.90
23550;DHT22;11953;49.010;8.608;2022-08-19T05:33:45;22.40;99.90
23550;DHT22;11953;49.010;8.608;2022-08-19T05:36:37;22.20;99.90
23550;DHT22;11953;49.010;8.608;2022-08-19T05:39:27;22.20;99.90
23550;DHT22;11953;49.010;8.608;2022-08-19T05:42:13;22.20;99.90
23550;DHT22;11953;49.010;8.608;2022-08-19T05:45:00;22.10;99.90
23550;DHT22;11953;49.010;8.608;2022-08-19T05:47:46;22.10;99.90
23550;DHT22;11953;49.010;8.608;2022-08-19T05:50:35;22.10;99.90
23550;DHT22;11953;49.010;8.608;2022-08-19T05:53:23;22.10;99.90
23550;DHT22;11953;49.010;8.608;2022-08-19T05:56:12;22.30;99.90
23550;DHT22;11953;49.010;8.608;2022-08-19T05:59:00;22.20;99.90
23550;DHT22;11953;49.010;8.608;2022-08-19T06:01:48;22.10;99.90
23550;DHT22;11953;49.010;8.608;2022-08-19T06:04:36;22.20;99.90
23550;DHT22;11953;49.010;8.608;2022-08-19T06:07:22;22.10;99.90
23550;DHT22;11953;49.010;8.608;2022-08-19T06:10:11;22.10;99.90
23550;DHT22;11953;49.010;8.608;2022-08-19T06:12:58;22.20;99.90
23550;DHT22;11953;49.010;8.608;2022-08-19T06:15:44;22.10;99.90
23550;DHT22;11953;49.010;8.608;2022-08-19T06:18:32;22.20;99.90
23550;DHT22;11953;49.010;8.608;2022-08-19T06:21:19;22.30;99.90
23550;DHT22;11953;49.010;8.608;2022-08-19T06:24:08;22.40;99.90
23550;DHT22;11953;49.010;8.608;2022-08-19T06:26:58;22.40;99.90
23550;DHT22;11953;49.010;8.608;2022-08-19T06:29:46;22.40;99.90
23550;DHT22;11953;49.010;8.608;2022-08-19T06:32:33;22.50;99.90
23550;DHT22;11953;49.010;8.608;2022-08-19T06:35:24;22.50;99.90
23550;DHT22;11953;49.010;8.608;2022-08-19T06:38:10;22.60;99.90
23550;DHT22;11953;49.010;8.608;2022-08-19T06:41:01;22.60;99.90
23550;DHT22;11953;49.010;8.608;2022-08-19T06:43:54;22.50;99.90
23550;DHT22;11953;49.010;8.608;2022-08-19T06:46:43;22.50;99.90
23550;DHT22;11953;49.010;8.608;2022-08-19T06:49:38;22.50;99.90
23550;DHT22;11953;49.010;8.608;2022-08-19T06:52:25;22.50;99.90
23550;DHT22;11953;49.010;8.608;2022-08-19T06:55:13;22.60;99.90
23550;DHT22;11953;49.010;8.608;2022-08-19T06:58:03;22.70;99.90
23550;DHT22;11953;49.010;8.608;2022-08-19T07:00:51;22.80;99.90
23550;DHT22;11953;49.010;8.608;2022-08-19T07:03:39;22.80;99.90
23550;DHT22;11953;49.010;8.608;2022-08-19T07:06:25;22.70;99.90
23550;DHT22;11953;49.010;8.608;2022-08-19T07:09:29;22.70;99.90
23550;DHT22;11953;49.010;8.608;2022-08-19T07:12:16;22.70;99.90
23550;DHT22;11953;49.010;8.608;2022-08-19T07:15:08;22.70;99.90
23550;DHT22;11953;49.010;8.608;2022-08-19T07:17:57;22.80;99.90
23550;DHT22;11953;49.010;8.608;2022-08-19T07:20:44;22.80;99.90
23550;DHT22;11953;49.010;8.608;2022-08-19T07:23:37;23.00;99.90
23550;DHT22;11953;49.010;8.608;2022-08-19T07:26:26;23.10;99.90
23550;DHT22;11953;49.010;8.608;2022-08-19T07:29:13;23.10;99.90
23550;DHT22;11953;49.010;8.608;2022-08-19T07:32:04;23.10;99.90
23550;DHT22;11953;49.010;8.608;2022-08-19T07:34:57;23.20;99.90
23550;DHT22;11953;49.010;8.608;2022-08-19T07:37:46;23.30;99.90
23550;DHT22;11953;49.010;8.608;2022-08-19T07:40:33;23.40;99.90
23550;DHT22;11953;49.010;8.608;2022-08-19T07:43:20;23.40;99.90
23550;DHT22;11953;49.010;8.608;2022-08-19T07:46:19;23.30;99.90
23550;DHT22;11953;49.010;8.608;2022-08-19T07:49:07;23.20;99.90
23550;DHT22;11953;49.010;8.608;2022-08-19T07:52:04;23.30;99.90
23550;DHT22;11953;49.010;8.608;2022-08-19T07:54:51;23.30;99.90
23550;DHT22;11953;49.010;8.608;2022-08-19T07:57:38;23.30;99.90
23550;DHT22;11953;49.010;8.608;2022-08-19T08:00:25;23.20;99.90
23550;DHT22;11953;49.010;8.608;2022-08-19T08:03:14;23.40;99.90
23550;DHT22;11953;49.010;8.608;2022-08-19T08:06:01;23.70;99.90
23550;DHT22;11953;49.010;8.608;2022-08-19T08:09:08;23.90;99.90
23550;DHT22;11953;49.010;8.608;2022-08-19T08:12:03;24.00;99.90
23550;DHT22;11953;49.010;8.608;2022-08-19T08:15:14;24.10;99.90
23550;DHT22;11953;49.010;8.608;2022-08-19T08:18:04;24.20;99.90
23550;DHT22;11953;49.010;8.608;2022-08-19T08:20:52;24.30;99.90
23550;DHT22;11953;49.010;8.608;2022-08-19T08:23:38;24.60;99.90
23550;DHT22;11953;49.010;8.608;2022-08-19T08:26:27;24.90;99.90
23550;DHT22;11953;49.010;8.608;2022-08-19T08:29:19;25.30;99.90
23550;DHT22;11953;49.010;8.608;2022-08-19T08:32:05;25.60;99.90
23550;DHT22;11953;49.010;8.608;2022-08-19T08:34:59;25.90;99.90
23550;DHT22;11953;49.010;8.608;2022-08-19T08:37:47;25.90;99.90
23550;DHT22;11953;49.010;8.608;2022-08-19T08:40:42;25.90;99.90
23550;DHT22;11953;49.010;8.608;2022-08-19T08:43:34;25.90;99.90
23550;DHT22;11953;49.010;8.608;2022-08-19T08:46:24;25.90;99.90
23550;DHT22;11953;49.010;8.608;2022-08-19T08:49:28;26.00;99.90
23550;DHT22;11953;49.010;8.608;2022-08-19T08:52:20;26.00;99.90
23550;DHT22;11953;49.010;8.608;2022-08-19T08:55:11;26.10;99.90
23550;DHT22;11953;49.010;8.608;2022-08-19T08:58:01;26.40;99.90
23550;DHT22;11953;49.010;8.608;2022-08-19T09:00:50;27.50;99.90
23550;DHT22;11953;49.010;8.608;2022-08-19T09:03:38;28.50;99.90
23550;DHT22;11953;49.010;8.608;2022-08-19T09:06:40;29.00;99.90
23550;DHT22;11953;49.010;8.608;2022-08-19T09:09:34;29.30;99.90
23550;DHT22;11953;49.010;8.608;2022-08-19T09:12:28;28.90;99.90
23550;DHT22;11953;49.010;8.608;2022-08-19T09:15:25;29.20;99.90
23550;DHT22;11953;49.010;8.608;2022-08-19T09:18:22;29.60;99.90
23550;DHT22;11953;49.010;8.608;2022-08-19T09:21:14;29.90;99.60
23550;DHT22;11953;49.010;8.608;2022-08-19T09:24:02;30.20;99.20
23550;DHT22;11953;49.010;8.608;2022-08-19T09:26:50;30.40;98.40
23550;DHT22;11953;49.010;8.608;2022-08-19T09:29:37;30.20;98.50
23550;DHT22;11953;49.010;8.608;2022-08-19T09:32:25;29.60;99.00
23550;DHT22;11953;49.010;8.608;2022-08-19T09:35:14;29.30;99.10
23550;DHT22;11953;49.010;8.608;2022-08-19T09:38:01;29.30;99.10
23550;DHT22;11953;49.010;8.608;2022-08-19T09:40:48;29.40;98.90
23550;DHT22;11953;49.010;8.608;2022-08-19T09:43:35;29.70;98.50
23550;DHT22;11953;49.010;8.608;2022-08-19T09:46:29;29.80;98.40
23550;DHT22;11953;49.010;8.608;2022-08-19T09:49:19;29.70;98.00
23550;DHT22;11953;49.010;8.608;2022-08-19T09:52:10;29.40;97.90
23550;DHT22;11953;49.010;8.608;2022-08-19T09:54:58;29.30;98.30
23550;DHT22;11953;49.010;8.608;2022-08-19T09:57:45;29.40;97.90
23550;DHT22;11953;49.010;8.608;2022-08-19T10:00:32;29.40;98.50
23550;DHT22;11953;49.010;8.608;2022-08-19T10:03:19;29.60;98.30
23550;DHT22;11953;49.010;8.608;2022-08-19T10:06:10;29.50;98.30
23550;DHT22;11953;49.010;8.608;2022-08-19T10:09:03;29.20;98.20
23550;DHT22;11953;49.010;8.608;2022-08-19T10:11:53;29.20;97.80
23550;DHT22;11953;49.010;8.608;2022-08-19T10:14:40;29.40;98.00
23550;DHT22;11953;49.010;8.608;2022-08-19T10:17:27;29.60;97.80
23550;DHT22;11953;49.010;8.608;2022-08-19T10:20:17;29.60;97.70
23550;DHT22;11953;49.010;8.608;2022-08-19T10:23:04;29.00;97.80
23550;DHT22;11953;49.010;8.608;2022-08-19T10:25:53;28.60;98.10
23550;DHT22;11953;49.010;8.608;2022-08-19T10:28:41;28.30;98.50
23550;DHT22;11953;49.010;8.608;2022-08-19T10:31:33;28.10;98.70
23550;DHT22;11953;49.010;8.608;2022-08-19T10:34:40;28.00;98.80
23550;DHT22;11953;49.010;8.608;2022-08-19T10:37:33;27.90;98.80
23550;DHT22;11953;49.010;8.608;2022-08-19T10:40:20;28.20;98.40
23550;DHT22;11953;49.010;8.608;2022-08-19T10:43:08;28.60;98.40
23550;DHT22;11953;49.010;8.608;2022-08-19T10:45:55;28.70;98.30
23550;DHT22;11953;49.010;8.608;2022-08-19T10:48:44;28.70;98.10
23550;DHT22;11953;49.010;8.608;2022-08-19T10:51:32;28.50;98.00
23550;DHT22;11953;49.010;8.608;2022-08-19T10:54:36;28.20;97.80
23550;DHT22;11953;49.010;8.608;2022-08-19T10:57:39;28.10;98.00
23550;DHT22;11953;49.010;8.608;2022-08-19T11:00:52;28.40;98.30
23550;DHT22;11953;49.010;8.608;2022-08-19T11:03:39;29.30;97.60
23550;DHT22;11953;49.010;8.608;2022-08-19T11:06:26;29.60;97.20
23550;DHT22;11953;49.010;8.608;2022-08-19T11:09:14;29.90;97.10
23550;DHT22;11953;49.010;8.608;2022-08-19T11:12:01;29.80;96.70
23550;DHT22;11953;49.010;8.608;2022-08-19T11:14:49;30.10;95.40
23550;DHT22;11953;49.010;8.608;2022-08-19T11:17:38;30.40;95.20
23550;DHT22;11953;49.010;8.608;2022-08-19T11:20:28;30.90;94.40
23550;DHT22;11953;49.010;8.608;2022-08-19T11:23:16;31.10;94.70
23550;DHT22;11953;49.010;8.608;2022-08-19T11:26:03;30.80;94.00
23550;DHT22;11953;49.010;8.608;2022-08-19T11:28:50;30.10;94.50
23550;DHT22;11953;49.010;8.608;2022-08-19T11:31:40;29.90;95.00
23550;DHT22;11953;49.010;8.608;2022-08-19T11:34:29;29.60;94.40
23550;DHT22;11953;49.010;8.608;2022-08-19T11:37:16;29.30;95.10
23550;DHT22;11953;49.010;8.608;2022-08-19T11:40:04;29.30;94.70
23550;DHT22;11953;49.010;8.608;2022-08-19T11:42:52;29.30;95.00
23550;DHT22;11953;49.010;8.608;2022-08-19T11:45:41;29.30;94.70
23550;DHT22;11953;49.010;8.608;2022-08-19T11:48:28;29.10;94.40
23550;DHT22;11953;49.010;8.608;2022-08-19T11:51:18;29.40;94.70
23550;DHT22;11953;49.010;8.608;2022-08-19T11:54:05;29.70;95.10
23550;DHT22;11953;49.010;8.608;2022-08-19T11:56:52;29.90;94.50
23550;DHT22;11953;49.010;8.608;2022-08-19T11:59:41;30.40;93.80
23550;DHT22;11953;49.010;8.608;2022-08-19T12:02:28;30.50;92.50
23550;DHT22;11953;49.010;8.608;2022-08-19T12:05:15;30.20;92.50
23550;DHT22;11953;49.010;8.608;2022-08-19T12:08:03;29.80;92.70
23550;DHT22;11953;49.010;8.608;2022-08-19T12:10:50;29.60;91.70
23550;DHT22;11953;49.010;8.608;2022-08-19T12:13:38;29.40;91.50
23550;DHT22;11953;49.010;8.608;2022-08-19T12:16:27;29.50;91.70
23550;DHT22;11953;49.010;8.608;2022-08-19T12:19:17;29.80;91.90
23550;DHT22;11953;49.010;8.608;2022-08-19T12:22:07;30.20;91.50
23550;DHT22;11953;49.010;8.608;2022-08-19T12:24:55;29.80;92.30
23550;DHT22;11953;49.010;8.608;2022-08-19T12:27:42;29.70;92.70
23550;DHT22;11953;49.010;8.608;2022-08-19T12:30:41;29.50;92.60
23550;DHT22;11953;49.010;8.608;2022-08-19T12:33:28;29.30;92.80
23550;DHT22;11953;49.010;8.608;2022-08-19T12:36:15;29.10;93.00
23550;DHT22;11953;49.010;8.608;2022-08-19T12:39:02;29.30;92.80
23550;DHT22;11953;49.010;8.608;2022-08-19T12:41:56;29.30;92.80
23550;DHT22;11953;49.010;8.608;2022-08-19T12:44:44;29.10;92.90
23550;DHT22;11953;49.010;8.608;2022-08-19T12:47:30;28.90;93.00
23550;DHT22;11953;49.010;8.608;2022-08-19T12:50:18;28.70;93.30
23550;DHT22;11953;49.010;8.608;2022-08-19T12:53:06;28.90;93.50
23550;DHT22;11953;49.010;8.608;2022-08-19T12:55:55;28.80;93.70
23550;DHT22;11953;49.010;8.608;2022-08-19T12:58:43;28.90;93.60
23550;DHT22;11953;49.010;8.608;2022-08-19T13:01:34;28.70;93.90
23550;DHT22;11953;49.010;8.608;2022-08-19T13:04:21;28.70;93.90
23550;DHT22;11953;49.010;8.608;2022-08-19T13:07:08;28.60;93.90
23550;DHT22;11953;49.010;8.608;2022-08-19T13:09:55;28.50;94.30
23550;DHT22;11953;49.010;8.608;2022-08-19T13:12:43;28.30;94.40
23550;DHT22;11953;49.010;8.608;2022-08-19T13:15:33;28.20;94.10
23550;DHT22;11953;49.010;8.608;2022-08-19T13:18:21;28.10;94.10
23550;DHT22;11953;49.010;8.608;2022-08-19T13:21:09;28.10;94.10
23550;DHT22;11953;49.010;8.608;2022-08-19T13:23:57;28.40;94.30
23550;DHT22;11953;49.010;8.608;2022-08-19T13:26:44;28.40;94.00
23550;DHT22;11953;49.010;8.608;2022-08-19T13:29:30;28.40;94.00
23550;DHT22;11953;49.010;8.608;2022-08-19T13:32:35;28.40;94.00
23550;DHT22;11953;49.010;8.608;2022-08-19T13:35:42;28.20;93.40
23550;DHT22;11953;49.010;8.608;2022-08-19T13:38:29;27.90;93.20
23550;DHT22;11953;49.010;8.608;2022-08-19T13:41:16;27.80;93.50
23550;DHT22;11953;49.010;8.608;2022-08-19T13:44:05;27.80;93.50
23550;DHT22;11953;49.010;8.608;2022-08-19T13:46:52;27.60;93.60
23550;DHT22;11953;49.010;8.608;2022-08-19T13:49:40;27.60;93.40
23550;DHT22;11953;49.010;8.608;2022-08-19T13:52:27;27.50;93.70
23550;DHT22;11953;49.010;8.608;2022-08-19T13:55:15;27.60;93.60
23550;DHT22;11953;49.010;8.608;2022-08-19T13:58:10;27.60;93.70
23550;DHT22;11953;49.010;8.608;2022-08-19T14:00:57;27.50;93.80
23550;DHT22;11953;49.010;8.608;2022-08-19T14:03:44;27.70;94.20
23550;DHT22;11953;49.010;8.608;2022-08-19T14:06:33;27.70;93.90
23550;DHT22;11953;49.010;8.608;2022-08-19T14:09:20;27.90;94.10
23550;DHT22;11953;49.010;8.608;2022-08-19T14:12:07;27.90;94.00
23550;DHT22;11953;49.010;8.608;2022-08-19T14:14:54;28.00;93.50
23550;DHT22;11953;49.010;8.608;2022-08-19T14:17:42;28.00;93.40
23550;DHT22;11953;49.010;8.608;2022-08-19T14:20:29;28.10;93.80
23550;DHT22;11953;49.010;8.608;2022-08-19T14:23:17;28.20;92.90
23550;DHT22;11953;49.010;8.608;2022-08-19T14:26:06;28.30;92.90
23550;DHT22;11953;49.010;8.608;2022-08-19T14:28:54;28.30;92.40
23550;DHT22;11953;49.010;8.608;2022-08-19T14:31:42;28.60;93.40
23550;DHT22;11953;49.010;8.608;2022-08-19T14:34:29;28.50;92.60
23550;DHT22;11953;49.010;8.608;2022-08-19T14:37:16;28.60;91.50
23550;DHT22;11953;49.010;8.608;2022-08-19T14:40:06;28.60;91.70
23550;DHT22;11953;49.010;8.608;2022-08-19T14:42:53;28.40;91.20
23550;DHT22;11953;49.010;8.608;2022-08-19T14:45:49;28.40;91.60
23550;DHT22;11953;49.010;8.608;2022-08-19T14:48:36;28.50;91.90
23550;DHT22;11953;49.010;8.608;2022-08-19T14:51:25;28.50;92.60
23550;DHT22;11953;49.010;8.608;2022-08-19T14:54:13;28.50;92.80
23550;DHT22;11953;49.010;8.608;2022-08-19T14:57:01;28.50;91.90
23550;DHT22;11953;49.010;8.608;2022-08-19T14:59:48;28.50;91.10
23550;DHT22;11953;49.010;8.608;2022-08-19T15:02:34;28.40;91.70
23550;DHT22;11953;49.010;8.608;2022-08-19T15:05:22;28.20;91.40
23550;DHT22;11953;49.010;8.608;2022-08-19T15:08:08;28.20;91.50
23550;DHT22;11953;49.010;8.608;2022-08-19T15:10:56;28.20;90.70
23550;DHT22;11953;49.010;8.608;2022-08-19T15:13:44;28.30;90.60
23550;DHT22;11953;49.010;8.608;2022-08-19T15:16:32;28.30;90.00
23550;DHT22;11953;49.010;8.608;2022-08-19T15:19:19;28.30;89.90
23550;DHT22;11953;49.010;8.608;2022-08-19T15:22:06;28.40;89.70
23550;DHT22;11953;49.010;8.608;2022-08-19T15:24:53;28.40;89.60
23550;DHT22;11953;49.010;8.608;2022-08-19T15:27:41;28.40;88.90
23550;DHT22;11953;49.010;8.608;2022-08-19T15:30:29;28.40;88.90
23550;DHT22;11953;49.010;8.608;2022-08-19T15:33:19;28.40;88.80
23550;DHT22;11953;49.010;8.608;2022-08-19T15:36:06;28.40;88.60
23550;DHT22;11953;49.010;8.608;2022-08-19T15:38:54;28.30;89.20
23550;DHT22;11953;49.010;8.608;2022-08-19T15:41:41;28.30;89.10
23550;DHT22;11953;49.010;8.608;2022-08-19T15:44:29;28.30;89.00
23550;DHT22;11953;49.010;8.608;2022-08-19T15:47:18;28.30;90.00
23550;DHT22;11953;49.010;8.608;2022-08-19T15:50:06;28.30;89.30
23550;DHT22;11953;49.010;8.608;2022-08-19T15:52:57;28.10;88.50
23550;DHT22;11953;49.010;8.608;2022-08-19T15:55:45;28.10;88.70
23550;DHT22;11953;49.010;8.608;2022-08-19T15:58:32;28.00;89.30
23550;DHT22;11953;49.010;8.608;2022-08-19T16:01:36;28.00;89.60
23550;DHT22;11953;49.010;8.608;2022-08-19T16:04:57;27.90;88.90
23550;DHT22;11953;49.010;8.608;2022-08-19T16:07:57;27.80;88.80
23550;DHT22;11953;49.010;8.608;2022-08-19T16:10:44;27.80;89.20
23550;DHT22;11953;49.010;8.608;2022-08-19T16:13:31;27.80;89.00
23550;DHT22;11953;49.010;8.608;2022-08-19T16:16:17;27.90;89.60
23550;DHT22;11953;49.010;8.608;2022-08-19T16:19:06;27.80;89.20
23550;DHT22;11953;49.010;8.608;2022-08-19T16:21:56;27.90;89.80
23550;DHT22;11953;49.010;8.608;2022-08-19T16:24:43;27.90;89.80
23550;DHT22;11953;49.010;8.608;2022-08-19T16:27:29;27.80;90.00
23550;DHT22;11953;49.010;8.608;2022-08-19T16:30:16;27.80;89.70
23550;DHT22;11953;49.010;8.608;2022-08-19T16:33:03;27.80;89.80
23550;DHT22;11953;49.010;8.608;2022-08-19T16:35:50;27.80;90.00
23550;DHT22;11953;49.010;8.608;2022-08-19T16:38:53;27.90;90.30
23550;DHT22;11953;49.010;8.608;2022-08-19T16:41:42;27.80;90.10
23550;DHT22;11953;49.010;8.608;2022-08-19T16:44:28;27.90;90.30
23550;DHT22;11953;49.010;8.608;2022-08-19T16:47:15;27.90;90.50
23550;DHT22;11953;49.010;8.608;2022-08-19T16:50:03;27.90;90.50
23550;DHT22;11953;49.010;8.608;2022-08-19T16:52:51;27.90;90.40
23550;DHT22;11953;49.010;8.608;2022-08-19T16:55:39;27.90;90.60
23550;DHT22;11953;49.010;8.608;2022-08-19T16:58:27;27.90;90.90
23550;DHT22;11953;49.010;8.608;2022-08-19T17:01:15;28.00;91.70
23550;DHT22;11953;49.010;8.608;2022-08-19T17:04:02;28.00;91.30
23550;DHT22;11953;49.010;8.608;2022-08-19T17:06:49;28.00;92.10
23550;DHT22;11953;49.010;8.608;2022-08-19T17:09:36;28.00;90.90
23550;DHT22;11953;49.010;8.608;2022-08-19T17:12:24;28.00;91.40
23550;DHT22;11953;49.010;8.608;2022-08-19T17:15:17;28.00;91.50
23550;DHT22;11953;49.010;8.608;2022-08-19T17:18:06;28.00;91.60
23550;DHT22;11953;49.010;8.608;2022-08-19T17:20:54;27.90;91.70
23550;DHT22;11953;49.010;8.608;2022-08-19T17:23:41;27.80;91.60
23550;DHT22;11953;49.010;8.608;2022-08-19T17:26:29;27.70;92.50
23550;DHT22;11953;49.010;8.608;2022-08-19T17:29:17;27.60;91.50
23550;DHT22;11953;49.010;8.608;2022-08-19T17:32:04;27.60;91.90
23550;DHT22;11953;49.010;8.608;2022-08-19T17:34:52;27.40;91.70
23550;DHT22;11953;49.010;8.608;2022-08-19T17:37:39;27.40;91.90
23550;DHT22;11953;49.010;8.608;2022-08-19T17:40:27;27.40;91.80
23550;DHT22;11953;49.010;8.608;2022-08-19T17:43:15;27.30;91.90
23550;DHT22;11953;49.010;8.608;2022-08-19T17:46:18;27.20;92.00
23550;DHT22;11953;49.010;8.608;2022-08-19T17:49:05;27.20;92.10